createdAt,value
2015-12-11T00:00:08.342Z,-1.89
2015-12-11T00:00:20.701Z,-1.86
2015-12-11T00:00:33.063Z,-1.86
2015-12-11T00:00:45.423Z,-1.79
2015-12-11T00:00:57.782Z,-1.86
2015-12-11T00:01:10.141Z,-1.84
2015-12-11T00:01:22.501Z,-1.86
2015-12-11T00:01:34.848Z,-1.79
2015-12-11T00:01:47.207Z,-1.79
2015-12-11T00:01:59.582Z,-1.86
2015-12-11T00:02:11.957Z,-1.92
2015-12-11T00:02:24.332Z,-1.92
2015-12-11T00:02:36.709Z,-1.89
2015-12-11T00:02:49.100Z,-1.91
2015-12-11T00:03:01.490Z,-1.99
2015-12-11T00:03:13.881Z,-1.92
2015-12-11T00:03:26.271Z,-2.03
2015-12-11T00:03:38.681Z,-1.97
2015-12-11T00:03:51.056Z,-2
2015-12-11T00:04:03.446Z,-1.91
2015-12-11T00:04:15.806Z,-1.97
2015-12-11T00:04:28.149Z,-1.92
2015-12-11T00:04:40.511Z,-1.88
2015-12-11T00:04:52.870Z,-1.94
2015-12-11T00:05:05.230Z,-1.97
2015-12-11T00:05:17.589Z,-1.94
2015-12-11T00:05:29.964Z,-1.84
2015-12-11T00:05:42.327Z,-1.88
2015-12-11T00:05:54.702Z,-1.88
2015-12-11T00:06:07.077Z,-1.89
2015-12-11T00:06:19.421Z,-1.86
2015-12-11T00:06:31.780Z,-1.73
2015-12-11T00:06:44.142Z,-1.76
2015-12-11T00:06:56.501Z,-1.7
2015-12-11T00:07:08.876Z,-1.78
2015-12-11T00:07:21.251Z,-1.73
2015-12-11T00:07:33.626Z,-1.79
2015-12-11T00:07:46.005Z,-1.78
2015-12-11T00:07:58.380Z,-1.79
2015-12-11T00:08:10.771Z,-1.78
2015-12-11T00:08:23.161Z,-1.73
2015-12-11T00:08:35.552Z,-1.74
2015-12-11T00:08:47.945Z,-1.76
2015-12-11T00:09:00.335Z,-1.71
2015-12-11T00:09:12.757Z,-1.79
2015-12-11T00:09:25.117Z,-1.81
2015-12-11T00:09:37.460Z,-1.81
2015-12-11T00:09:49.823Z,-1.81
2015-12-11T00:10:02.182Z,-1.82
2015-12-11T00:10:14.541Z,-1.79
2015-12-11T00:10:27.010Z,-1.86
2015-12-11T00:10:39.354Z,-1.81
2015-12-11T00:10:51.716Z,-1.88
2015-12-11T00:11:04.091Z,-1.81
2015-12-11T00:11:16.466Z,-1.81
2015-12-11T00:11:28.810Z,-1.86
2015-12-11T00:11:41.185Z,-1.82
2015-12-11T00:11:53.546Z,-1.94
2015-12-11T00:12:05.187Z,-1.89
2015-12-11T00:12:17.562Z,-1.97
2015-12-11T00:12:29.937Z,-1.97
2015-12-11T00:12:42.296Z,-1.89
2015-12-11T00:12:54.674Z,-1.89
2015-12-11T00:13:07.065Z,-1.94
2015-12-11T00:13:19.440Z,-1.92
2015-12-11T00:13:31.831Z,-1.88
2015-12-11T00:13:44.253Z,-1.89
2015-12-11T00:13:56.645Z,-1.85
2015-12-11T00:14:09.036Z,-1.84
2015-12-11T00:14:21.426Z,-1.82
2015-12-11T00:14:33.817Z,-1.86
2015-12-11T00:14:46.223Z,-1.82
2015-12-11T00:14:58.570Z,-1.85
2015-12-11T00:15:10.961Z,-1.91
2015-12-11T00:15:23.304Z,-1.88
2015-12-11T00:15:35.679Z,-1.91
2015-12-11T00:15:48.039Z,-1.92
2015-12-11T00:16:00.401Z,-1.89
2015-12-11T00:16:12.761Z,-1.91
2015-12-11T00:16:25.120Z,-1.92
2015-12-11T00:16:37.464Z,-1.89
2015-12-11T00:16:49.839Z,-1.91
2015-12-11T00:17:02.201Z,-1.94
2015-12-11T00:17:14.560Z,-1.89
2015-12-11T00:17:26.920Z,-1.79
2015-12-11T00:17:39.123Z,-1.82
2015-12-11T00:17:51.498Z,-1.86
2015-12-11T00:18:03.876Z,-1.84
2015-12-11T00:18:16.235Z,-1.85
2015-12-11T00:18:28.610Z,-1.84
2015-12-11T00:18:40.985Z,-1.91
2015-12-11T00:18:53.407Z,-1.84
2015-12-11T00:19:05.801Z,-1.88
2015-12-11T00:19:18.176Z,-1.94
2015-12-11T00:19:30.582Z,-1.86
2015-12-11T00:19:42.973Z,-1.92
2015-12-11T00:19:55.365Z,-1.92
2015-12-11T00:20:07.756Z,-1.99
2015-12-11T00:20:20.100Z,-1.97
2015-12-11T00:20:32.459Z,-2.05
2015-12-11T00:20:44.818Z,-1.94
2015-12-11T00:20:57.181Z,-1.99
2015-12-11T00:21:09.540Z,-1.94
2015-12-11T00:21:21.915Z,-1.96
2015-12-11T00:21:34.259Z,-1.89
2015-12-11T00:21:46.618Z,-1.94
2015-12-11T00:21:58.981Z,-1.92
2015-12-11T00:22:11.356Z,-1.89
2015-12-11T00:22:23.699Z,-1.96
2015-12-11T00:22:36.059Z,-1.92
2015-12-11T00:22:48.418Z,-1.97
2015-12-11T00:23:00.780Z,-1.91
2015-12-11T00:23:13.155Z,-1.89
2015-12-11T00:23:25.545Z,-1.96
2015-12-11T00:23:37.920Z,-1.96
2015-12-11T00:23:50.280Z,-1.88
2015-12-11T00:24:02.673Z,-1.88
2015-12-11T00:24:15.064Z,-1.92
2015-12-11T00:24:27.454Z,-1.81
2015-12-11T00:24:39.876Z,-1.84
2015-12-11T00:24:52.283Z,-1.89
2015-12-11T00:25:04.661Z,-1.78
2015-12-11T00:25:17.051Z,-1.81
2015-12-11T00:25:29.457Z,-1.74
2015-12-11T00:25:41.817Z,-1.68
2015-12-11T00:25:54.176Z,-1.81
2015-12-11T00:26:06.539Z,-1.76
2015-12-11T00:26:18.898Z,-1.76
2015-12-11T00:26:31.273Z,-1.76
2015-12-11T00:26:43.617Z,-1.84
2015-12-11T00:26:55.960Z,-1.74
2015-12-11T00:27:08.306Z,-1.73
2015-12-11T00:27:20.650Z,-1.67
2015-12-11T00:27:33.009Z,-1.79
2015-12-11T00:27:45.369Z,-1.74
2015-12-11T00:27:57.728Z,-1.78
2015-12-11T00:28:10.090Z,-1.74
2015-12-11T00:28:22.294Z,-1.81
2015-12-11T00:28:34.669Z,-1.84
2015-12-11T00:28:47.044Z,-1.67
2015-12-11T00:28:59.403Z,-1.71
2015-12-11T00:29:11.781Z,-1.76
2015-12-11T00:29:24.156Z,-1.71
2015-12-11T00:29:36.547Z,-1.68
2015-12-11T00:29:48.937Z,-1.81
2015-12-11T00:30:01.343Z,-1.74
2015-12-11T00:30:13.737Z,-1.76
2015-12-11T00:30:26.112Z,-1.76
2015-12-11T00:30:38.503Z,-1.74
2015-12-11T00:30:50.893Z,-1.61
2015-12-11T00:31:03.268Z,-1.66
2015-12-11T00:31:15.631Z,-1.68
2015-12-11T00:31:27.990Z,-1.63
2015-12-11T00:31:40.349Z,-1.68
2015-12-11T00:31:52.709Z,-1.67
2015-12-11T00:32:05.068Z,-1.66
2015-12-11T00:32:17.430Z,-1.71
2015-12-11T00:32:29.789Z,-1.81
2015-12-11T00:32:42.148Z,-1.67
2015-12-11T00:32:54.508Z,-1.81
2015-12-11T00:33:06.883Z,-1.76
2015-12-11T00:33:19.229Z,-1.7
2015-12-11T00:33:31.589Z,-1.76
2015-12-11T00:33:43.948Z,-1.67
2015-12-11T00:33:56.354Z,-1.67
2015-12-11T00:34:08.729Z,-1.76
2015-12-11T00:34:20.404Z,-1.67
2015-12-11T00:34:32.764Z,-1.79
2015-12-11T00:34:45.139Z,-1.66
2015-12-11T00:34:57.514Z,-1.67
2015-12-11T00:35:09.904Z,-1.67
2015-12-11T00:35:22.297Z,-1.68
2015-12-11T00:35:34.672Z,-1.7
2015-12-11T00:35:47.063Z,-1.64
2015-12-11T00:35:59.406Z,-1.64
2015-12-11T00:36:11.766Z,-1.61
2015-12-11T00:36:23.409Z,-1.61
2015-12-11T00:36:35.769Z,-1.56
2015-12-11T00:36:48.128Z,-1.71
2015-12-11T00:37:00.487Z,-1.68
2015-12-11T00:37:12.847Z,-1.67
2015-12-11T00:37:25.194Z,-1.66
2015-12-11T00:37:37.553Z,-1.6
2015-12-11T00:37:49.194Z,-1.66
2015-12-11T00:38:01.553Z,-1.6
2015-12-11T00:38:13.897Z,-1.64
2015-12-11T00:38:26.259Z,-1.67
2015-12-11T00:38:38.618Z,-1.66
2015-12-11T00:38:51.009Z,-1.68
2015-12-11T00:39:03.368Z,-1.63
2015-12-11T00:39:15.743Z,-1.63
2015-12-11T00:39:28.121Z,-1.74
2015-12-11T00:39:40.512Z,-1.52
2015-12-11T00:39:52.903Z,-1.55
2015-12-11T00:40:05.278Z,-1.68
2015-12-11T00:40:17.668Z,-1.61
2015-12-11T00:40:30.061Z,-1.53
2015-12-11T00:40:42.452Z,-1.73
2015-12-11T00:40:54.123Z,-1.63
2015-12-11T00:41:06.514Z,-1.73
2015-12-11T00:41:18.873Z,-1.63
2015-12-11T00:41:31.236Z,-1.64
2015-12-11T00:41:43.595Z,-1.66
2015-12-11T00:41:55.955Z,-1.52
2015-12-11T00:42:08.314Z,-1.58
2015-12-11T00:42:20.673Z,-1.63
2015-12-11T00:42:33.036Z,-1.55
2015-12-11T00:42:45.395Z,-1.66
2015-12-11T00:42:57.754Z,-1.49
2015-12-11T00:43:10.129Z,-1.5
2015-12-11T00:43:22.504Z,-1.52
2015-12-11T00:43:34.867Z,-1.48
2015-12-11T00:43:47.242Z,-1.53
2015-12-11T00:43:59.617Z,-1.52
2015-12-11T00:44:11.836Z,-1.48
2015-12-11T00:44:24.211Z,-1.55
2015-12-11T00:44:36.431Z,-1.52
2015-12-11T00:44:48.806Z,-1.49
2015-12-11T00:45:01.197Z,-1.63
2015-12-11T00:45:13.588Z,-1.52
2015-12-11T00:45:25.978Z,-1.49
2015-12-11T00:45:38.372Z,-1.55
2015-12-11T00:45:50.731Z,-1.56
2015-12-11T00:46:03.091Z,-1.61
2015-12-11T00:46:15.450Z,-1.67
2015-12-11T00:46:27.825Z,-1.64
2015-12-11T00:46:40.187Z,-1.67
2015-12-11T00:46:52.531Z,-1.5
2015-12-11T00:47:04.890Z,-1.6
2015-12-11T00:47:17.265Z,-1.52
2015-12-11T00:47:29.609Z,-1.63
2015-12-11T00:47:41.986Z,-1.68
2015-12-11T00:47:54.346Z,-1.53
2015-12-11T00:48:06.705Z,-1.66
2015-12-11T00:48:19.064Z,-1.56
2015-12-11T00:48:31.439Z,-1.68
2015-12-11T00:48:43.817Z,-1.64
2015-12-11T00:48:56.192Z,-1.61
2015-12-11T00:49:08.583Z,-1.67
2015-12-11T00:49:20.958Z,-1.71
2015-12-11T00:49:33.349Z,-1.61
2015-12-11T00:49:45.039Z,-1.64
2015-12-11T00:49:57.414Z,-1.64
2015-12-11T00:50:09.805Z,-1.64
2015-12-11T00:50:22.211Z,-1.79
2015-12-11T00:50:34.602Z,-1.71
2015-12-11T00:50:46.995Z,-1.78
2015-12-11T00:50:59.386Z,-1.71
2015-12-11T00:51:11.042Z,-1.78
2015-12-11T00:51:23.401Z,-1.74
2015-12-11T00:51:35.761Z,-1.71
2015-12-11T00:51:48.122Z,-1.73
2015-12-11T00:52:00.482Z,-1.79
2015-12-11T00:52:12.841Z,-1.92
2015-12-11T00:52:25.216Z,-1.85
2015-12-11T00:52:37.560Z,-1.88
2015-12-11T00:52:49.953Z,-1.79
2015-12-11T00:53:02.578Z,-1.86
2015-12-11T00:53:14.938Z,-1.85
2015-12-11T00:53:27.297Z,-1.94
2015-12-11T00:53:39.656Z,-1.89
2015-12-11T00:53:52.019Z,-1.84
2015-12-11T00:54:04.394Z,-1.89
2015-12-11T00:54:16.769Z,-1.86
2015-12-11T00:54:29.128Z,-1.92
2015-12-11T00:54:41.503Z,-1.86
2015-12-11T00:54:53.881Z,-1.78
2015-12-11T00:55:06.272Z,-1.85
2015-12-11T00:55:18.662Z,-1.85
2015-12-11T00:55:31.037Z,-1.74
2015-12-11T00:55:43.412Z,-1.76
2015-12-11T00:55:55.790Z,-1.71
2015-12-11T00:56:08.165Z,-1.76
2015-12-11T00:56:20.556Z,-1.71
2015-12-11T00:56:32.931Z,-1.76
2015-12-11T00:56:45.306Z,-1.71
2015-12-11T00:56:57.715Z,-1.76
2015-12-11T00:57:09.918Z,-1.78
2015-12-11T00:57:22.278Z,-1.85
2015-12-11T00:57:34.637Z,-1.81
2015-12-11T00:57:46.997Z,-1.73
2015-12-11T00:57:59.358Z,-1.68
2015-12-11T00:58:11.717Z,-1.76
2015-12-11T00:58:24.077Z,-1.79
2015-12-11T00:58:36.436Z,-1.73
2015-12-11T00:58:48.655Z,-1.74
2015-12-11T00:59:01.017Z,-1.76
2015-12-11T00:59:13.361Z,-1.86
2015-12-11T00:59:25.720Z,-1.84
2015-12-11T00:59:38.080Z,-1.86
2015-12-11T00:59:50.455Z,-1.89
2015-12-11T01:00:02.833Z,-1.92
2015-12-11T01:00:15.208Z,-1.96
2015-12-11T01:00:27.598Z,-1.92
2015-12-11T01:00:39.989Z,-1.94
2015-12-11T01:00:52.380Z,-1.86
2015-12-11T01:01:04.789Z,-2.05
2015-12-11T01:01:17.179Z,-1.99
2015-12-11T01:01:29.586Z,-1.99
2015-12-11T01:01:41.961Z,-2.05
2015-12-11T01:01:54.351Z,-2.02
2015-12-11T01:02:06.791Z,-1.94
2015-12-11T01:02:19.150Z,-1.99
2015-12-11T01:02:31.525Z,-1.86
2015-12-11T01:02:43.869Z,-1.94
2015-12-11T01:02:56.228Z,-1.99
2015-12-11T01:03:08.591Z,-2.02
2015-12-11T01:03:20.950Z,-1.89
2015-12-11T01:03:33.309Z,-1.96
2015-12-11T01:03:45.684Z,-1.89
2015-12-11T01:03:58.059Z,-1.92
2015-12-11T01:04:10.437Z,-1.88
2015-12-11T01:04:22.812Z,-1.89
2015-12-11T01:04:35.187Z,-1.81
2015-12-11T01:04:47.562Z,-1.79
2015-12-11T01:04:59.956Z,-1.74
2015-12-11T01:05:12.315Z,-1.71
2015-12-11T01:05:24.581Z,-1.71
2015-12-11T01:05:37.253Z,-1.76
2015-12-11T01:05:48.909Z,-1.76
2015-12-11T01:06:01.286Z,-1.74
2015-12-11T01:06:13.661Z,-1.71
2015-12-11T01:06:26.021Z,-1.71
2015-12-11T01:06:38.380Z,-1.7
2015-12-11T01:06:50.724Z,-1.81
2015-12-11T01:07:03.086Z,-1.76
2015-12-11T01:07:15.461Z,-1.71
2015-12-11T01:07:27.852Z,-1.74
2015-12-11T01:07:40.258Z,-1.71
2015-12-11T01:07:52.617Z,-1.81
2015-12-11T01:08:04.964Z,-1.73
2015-12-11T01:08:17.323Z,-1.76
2015-12-11T01:08:29.683Z,-1.82
2015-12-11T01:08:42.058Z,-1.79
2015-12-11T01:08:54.417Z,-1.84
2015-12-11T01:09:06.794Z,-1.89
2015-12-11T01:09:19.138Z,-1.94
2015-12-11T01:09:31.497Z,-1.91
2015-12-11T01:09:43.872Z,-1.96
2015-12-11T01:09:56.232Z,-1.97
2015-12-11T01:10:08.595Z,-2
2015-12-11T01:10:20.954Z,-1.97
2015-12-11T01:10:33.329Z,-1.97
2015-12-11T01:10:45.720Z,-2.03
2015-12-11T01:10:58.095Z,-2.06
2015-12-11T01:11:10.472Z,-2.02
2015-12-11T01:11:22.847Z,-2.02
2015-12-11T01:11:35.269Z,-2
2015-12-11T01:11:47.644Z,-2.05
2015-12-11T01:12:00.035Z,-1.97
2015-12-11T01:12:12.427Z,-1.89
2015-12-11T01:12:24.849Z,-2
2015-12-11T01:12:37.224Z,-1.94
2015-12-11T01:12:49.615Z,-1.89
2015-12-11T01:13:01.974Z,-1.88
2015-12-11T01:13:14.336Z,-1.89
2015-12-11T01:13:26.680Z,-1.91
2015-12-11T01:13:39.024Z,-1.74
2015-12-11T01:13:51.383Z,-1.81
2015-12-11T01:14:03.727Z,-1.73
2015-12-11T01:14:16.074Z,-1.78
2015-12-11T01:14:28.433Z,-1.74
2015-12-11T01:14:40.808Z,-1.81
2015-12-11T01:14:53.168Z,-1.84
2015-12-11T01:15:05.371Z,-1.71
2015-12-11T01:15:17.717Z,-1.68
2015-12-11T01:15:30.092Z,-1.71
2015-12-11T01:15:42.452Z,-1.67
2015-12-11T01:15:54.827Z,-1.64
2015-12-11T01:16:07.186Z,-1.6
2015-12-11T01:16:19.563Z,-1.64
2015-12-11T01:16:31.938Z,-1.6
2015-12-11T01:16:44.313Z,-1.7
2015-12-11T01:16:56.704Z,-1.66
2015-12-11T01:17:09.094Z,-1.61
2015-12-11T01:17:21.489Z,-1.82
2015-12-11T01:17:33.723Z,-1.84
2015-12-11T01:17:46.130Z,-1.81
2015-12-11T01:17:58.520Z,-1.7
2015-12-11T01:18:10.895Z,-1.74
2015-12-11T01:18:23.272Z,-1.73
2015-12-11T01:18:35.632Z,-1.76
2015-12-11T01:18:47.991Z,-1.84
2015-12-11T01:19:00.350Z,-1.82
2015-12-11T01:19:12.554Z,-1.88
2015-12-11T01:19:24.916Z,-1.81
2015-12-11T01:19:37.275Z,-1.89
2015-12-11T01:19:49.635Z,-1.89
2015-12-11T01:20:01.994Z,-1.85
2015-12-11T01:20:14.353Z,-1.89
2015-12-11T01:20:26.731Z,-1.89
2015-12-11T01:20:39.091Z,-1.82
2015-12-11T01:20:51.450Z,-1.86
2015-12-11T01:21:03.825Z,-1.91
2015-12-11T01:21:16.200Z,-1.89
2015-12-11T01:21:28.552Z,-1.86
2015-12-11T01:21:40.927Z,-1.96
2015-12-11T01:21:53.286Z,-2.03
2015-12-11T01:22:04.942Z,-2.1
2015-12-11T01:22:44.458Z,-2.05
2015-12-11T01:22:56.740Z,-2.02
2015-12-11T01:23:09.099Z,-2
2015-12-11T01:23:21.458Z,-2.09
2015-12-11T01:23:33.818Z,-2.05
2015-12-11T01:23:46.164Z,-1.97
2015-12-11T01:23:58.524Z,-2.02
2015-12-11T01:24:10.883Z,-2.03
2015-12-11T01:24:23.258Z,-1.99
2015-12-11T01:24:35.617Z,-1.94
2015-12-11T01:24:47.965Z,-1.96
2015-12-11T01:25:00.168Z,-1.86
2015-12-11T01:25:12.558Z,-1.88
2015-12-11T01:25:24.933Z,-1.92
2015-12-11T01:25:36.605Z,-1.84
2015-12-11T01:25:48.951Z,-1.79
2015-12-11T01:26:01.326Z,-1.78
2015-12-11T01:26:13.716Z,-1.74
2015-12-11T01:26:26.091Z,-1.81
2015-12-11T01:26:38.482Z,-1.79
2015-12-11T01:26:50.854Z,-1.73
2015-12-11T01:27:03.260Z,-1.7
2015-12-11T01:27:15.651Z,-1.66
2015-12-11T01:27:28.041Z,-1.73
2015-12-11T01:27:40.463Z,-1.71
2015-12-11T01:27:52.820Z,-1.66
2015-12-11T01:28:05.179Z,-1.68
2015-12-11T01:28:17.538Z,-1.64
2015-12-11T01:28:30.038Z,-1.68
2015-12-11T01:28:42.398Z,-1.79
2015-12-11T01:28:54.754Z,-1.68
2015-12-11T01:29:07.114Z,-1.81
2015-12-11T01:29:19.473Z,-1.78
2015-12-11T01:29:31.832Z,-1.74
2015-12-11T01:29:44.207Z,-1.63
2015-12-11T01:29:56.564Z,-1.63
2015-12-11T01:30:08.923Z,-1.67
2015-12-11T01:30:21.282Z,-1.79
2015-12-11T01:30:33.486Z,-1.68
2015-12-11T01:30:45.892Z,-1.71
2015-12-11T01:30:57.546Z,-1.73
2015-12-11T01:31:09.921Z,-1.81
2015-12-11T01:31:22.296Z,-1.73
2015-12-11T01:31:34.687Z,-1.76
2015-12-11T01:31:47.062Z,-1.74
2015-12-11T01:31:59.452Z,-1.82
2015-12-11T01:32:11.843Z,-1.76
2015-12-11T01:32:24.234Z,-1.84
2015-12-11T01:32:36.640Z,-1.81
2015-12-11T01:32:49.030Z,-1.73
2015-12-11T01:33:00.719Z,-1.73
2015-12-11T01:33:13.110Z,-1.74
2015-12-11T01:33:25.469Z,-1.76
2015-12-11T01:33:37.813Z,-1.7
2015-12-11T01:33:50.173Z,-1.73
2015-12-11T01:34:02.532Z,-1.67
2015-12-11T01:34:14.892Z,-1.68
2015-12-11T01:34:27.251Z,-1.81
2015-12-11T01:34:39.611Z,-1.68
2015-12-11T01:34:51.955Z,-1.68
2015-12-11T01:35:04.330Z,-1.84
2015-12-11T01:35:16.690Z,-1.73
2015-12-11T01:35:29.049Z,-1.71
2015-12-11T01:35:40.690Z,-1.66
2015-12-11T01:35:53.050Z,-1.68
2015-12-11T01:36:05.425Z,-1.81
2015-12-11T01:36:17.800Z,-1.64
2015-12-11T01:36:30.175Z,-1.71
2015-12-11T01:36:42.550Z,-1.63
2015-12-11T01:36:54.927Z,-1.74
2015-12-11T01:37:07.318Z,-1.64
2015-12-11T01:37:19.724Z,-1.67
2015-12-11T01:37:32.099Z,-1.68
2015-12-11T01:37:44.490Z,-1.61
2015-12-11T01:37:56.898Z,-1.67
2015-12-11T01:38:09.273Z,-1.55
2015-12-11T01:38:21.507Z,-1.7
2015-12-11T01:38:33.913Z,-1.53
2015-12-11T01:38:46.273Z,-1.76
2015-12-11T01:38:58.618Z,-1.63
2015-12-11T01:39:10.977Z,-1.58
2015-12-11T01:39:23.321Z,-1.7
2015-12-11T01:39:35.696Z,-1.68
2015-12-11T01:39:48.055Z,-1.64
2015-12-11T01:40:00.433Z,-1.68
2015-12-11T01:40:12.808Z,-1.68
2015-12-11T01:40:25.152Z,-1.64
2015-12-11T01:40:37.527Z,-1.53
2015-12-11T01:40:49.886Z,-1.67
2015-12-11T01:41:02.248Z,-1.71
2015-12-11T01:41:14.607Z,-1.7
2015-12-11T01:41:26.998Z,-1.7
2015-12-11T01:41:39.357Z,-1.64
2015-12-11T01:41:51.732Z,-1.71
2015-12-11T01:42:04.110Z,-1.7
2015-12-11T01:42:16.469Z,-1.66
2015-12-11T01:42:28.860Z,-1.71
2015-12-11T01:42:41.251Z,-1.78
2015-12-11T01:42:53.641Z,-1.76
2015-12-11T01:43:06.033Z,-1.82
2015-12-11T01:43:18.423Z,-1.79
2015-12-11T01:43:30.814Z,-1.79
2015-12-11T01:43:43.220Z,-1.79
2015-12-11T01:43:55.580Z,-1.73
2015-12-11T01:44:07.926Z,-1.76
2015-12-11T01:44:20.286Z,-1.79
2015-12-11T01:44:31.973Z,-1.74
2015-12-11T01:44:44.317Z,-1.74
2015-12-11T01:44:56.692Z,-1.76
2015-12-11T01:45:09.053Z,-1.81
2015-12-11T01:45:21.413Z,-1.81
2015-12-11T01:45:33.772Z,-1.79
2015-12-11T01:45:46.147Z,-1.81
2015-12-11T01:45:58.522Z,-1.78
2015-12-11T01:46:10.869Z,-1.84
2015-12-11T01:46:23.228Z,-1.79
2015-12-11T01:46:35.588Z,-1.85
2015-12-11T01:46:47.978Z,-1.82
2015-12-11T01:47:00.041Z,-1.84
2015-12-11T01:47:12.419Z,-1.88
2015-12-11T01:47:24.794Z,-1.86
2015-12-11T01:47:37.184Z,-1.84
2015-12-11T01:47:49.559Z,-1.85
2015-12-11T01:48:01.950Z,-1.85
2015-12-11T01:48:14.328Z,-1.89
2015-12-11T01:48:26.719Z,-1.88
2015-12-11T01:48:39.125Z,-1.89
2015-12-11T01:48:51.500Z,-1.79
2015-12-11T01:49:03.922Z,-1.88
2015-12-11T01:49:16.268Z,-1.86
2015-12-11T01:49:28.643Z,-1.84
2015-12-11T01:49:40.986Z,-1.76
2015-12-11T01:49:53.346Z,-1.76
2015-12-11T01:50:05.689Z,-1.81
2015-12-11T01:50:18.067Z,-1.79
2015-12-11T01:50:30.427Z,-1.71
2015-12-11T01:50:42.786Z,-1.68
2015-12-11T01:50:55.146Z,-1.81
2015-12-11T01:51:07.521Z,-1.68
2015-12-11T01:51:19.883Z,-1.71
2015-12-11T01:51:32.242Z,-1.71
2015-12-11T01:51:43.883Z,-1.71
2015-12-11T01:51:56.242Z,-1.63
2015-12-11T01:52:08.617Z,-1.67
2015-12-11T01:52:20.994Z,-1.68
2015-12-11T01:52:33.213Z,-1.67
2015-12-11T01:52:45.588Z,-1.68
2015-12-11T01:52:57.979Z,-1.66
2015-12-11T01:53:10.354Z,-1.7
2015-12-11T01:53:22.029Z,-1.66
2015-12-11T01:53:34.419Z,-1.67
2015-12-11T01:53:46.810Z,-1.73
2015-12-11T01:53:59.200Z,-1.66
2015-12-11T01:54:11.638Z,-1.64
2015-12-11T01:54:23.985Z,-1.63
2015-12-11T01:54:36.344Z,-1.7
2015-12-11T01:54:48.703Z,-1.63
2015-12-11T01:55:01.063Z,-1.78
2015-12-11T01:55:13.422Z,-1.6
2015-12-11T01:55:25.799Z,-1.66
2015-12-11T01:55:38.159Z,-1.64
2015-12-11T01:55:50.518Z,-1.55
2015-12-11T01:56:02.877Z,-1.67
2015-12-11T01:56:15.237Z,-1.63
2015-12-11T01:56:27.616Z,-1.6
2015-12-11T01:56:39.959Z,-1.58
2015-12-11T01:56:52.303Z,-1.63
2015-12-11T01:57:04.663Z,-1.66
2015-12-11T01:57:17.022Z,-1.68
2015-12-11T01:57:29.399Z,-1.61
2015-12-11T01:57:41.774Z,-1.6
2015-12-11T01:57:54.149Z,-1.63
2015-12-11T01:58:06.524Z,-1.67
2015-12-11T01:58:18.915Z,-1.6
2015-12-11T01:58:31.293Z,-1.6
2015-12-11T01:58:43.699Z,-1.52
2015-12-11T01:58:56.121Z,-1.58
2015-12-11T01:59:08.496Z,-1.64
2015-12-11T01:59:20.886Z,-1.6
2015-12-11T01:59:33.280Z,-1.61
2015-12-11T01:59:45.639Z,-1.61
2015-12-11T01:59:57.842Z,-1.61
2015-12-11T02:00:10.217Z,-1.68
2015-12-11T02:00:22.577Z,-1.64
2015-12-11T02:00:34.955Z,-1.61
2015-12-11T02:00:47.314Z,-1.55
2015-12-11T02:00:59.658Z,-1.56
2015-12-11T02:01:12.017Z,-1.68
2015-12-11T02:01:24.580Z,-1.58
2015-12-11T02:01:36.238Z,-1.68
2015-12-11T02:01:48.597Z,-1.68
2015-12-11T02:02:00.957Z,-1.7
2015-12-11T02:02:13.301Z,-1.67
2015-12-11T02:02:25.660Z,-1.61
2015-12-11T02:02:38.055Z,-1.64
2015-12-11T02:02:50.414Z,-1.73
2015-12-11T02:03:02.789Z,-1.63
2015-12-11T02:03:15.164Z,-1.66
2015-12-11T02:03:27.539Z,-1.63
2015-12-11T02:03:39.948Z,-1.68
2015-12-11T02:03:52.354Z,-1.55
2015-12-11T02:04:04.745Z,-1.53
2015-12-11T02:04:17.151Z,-1.67
2015-12-11T02:04:29.542Z,-1.66
2015-12-11T02:04:41.936Z,-1.68
2015-12-11T02:04:54.311Z,-1.67
2015-12-11T02:05:06.670Z,-1.56
2015-12-11T02:05:19.029Z,-1.68
2015-12-11T02:05:31.389Z,-1.63
2015-12-11T02:05:43.735Z,-1.63
2015-12-11T02:05:56.110Z,-1.63
2015-12-11T02:06:08.454Z,-1.63
2015-12-11T02:06:20.829Z,-1.68
2015-12-11T02:06:32.470Z,-1.63
2015-12-11T02:06:44.831Z,-1.73
2015-12-11T02:06:57.034Z,-1.67
2015-12-11T02:07:09.425Z,-1.68
2015-12-11T02:07:21.784Z,-1.71
2015-12-11T02:07:34.144Z,-1.73
2015-12-11T02:07:46.490Z,-1.76
2015-12-11T02:07:58.865Z,-1.67
2015-12-11T02:08:11.303Z,-1.73
2015-12-11T02:08:23.678Z,-1.64
2015-12-11T02:08:36.053Z,-1.66
2015-12-11T02:08:48.431Z,-1.56
2015-12-11T02:09:00.822Z,-1.61
2015-12-11T02:09:13.197Z,-1.61
2015-12-11T02:09:25.587Z,-1.56
2015-12-11T02:09:37.978Z,-1.55
2015-12-11T02:09:50.371Z,-1.7
2015-12-11T02:10:02.746Z,-1.63
2015-12-11T02:10:15.090Z,-1.63
2015-12-11T02:10:27.450Z,-1.61
2015-12-11T02:10:39.809Z,-1.61
2015-12-11T02:10:52.170Z,-1.6
2015-12-11T02:11:04.530Z,-1.61
2015-12-11T02:11:16.889Z,-1.67
2015-12-11T02:11:29.248Z,-1.71
2015-12-11T02:11:40.889Z,-1.55
2015-12-11T02:11:53.267Z,-1.61
2015-12-11T02:12:05.611Z,-1.6
2015-12-11T02:12:17.970Z,-1.61
2015-12-11T02:12:30.330Z,-1.56
2015-12-11T02:12:42.689Z,-1.56
2015-12-11T02:12:55.067Z,-1.66
2015-12-11T02:13:07.442Z,-1.61
2015-12-11T02:13:19.801Z,-1.7
2015-12-11T02:13:32.176Z,-1.74
2015-12-11T02:13:44.551Z,-1.66
2015-12-11T02:13:56.944Z,-1.53
2015-12-11T02:14:09.319Z,-1.58
2015-12-11T02:14:21.710Z,-1.58
2015-12-11T02:14:34.100Z,-1.66
2015-12-11T02:14:46.319Z,-1.53
2015-12-11T02:14:58.681Z,-1.63
2015-12-11T02:15:11.041Z,-1.63
2015-12-11T02:15:23.400Z,-1.56
2015-12-11T02:15:35.759Z,-1.7
2015-12-11T02:15:48.122Z,-1.6
2015-12-11T02:16:00.481Z,-1.63
2015-12-11T02:16:12.825Z,-1.68
2015-12-11T02:16:25.184Z,-1.78
2015-12-11T02:16:37.559Z,-1.66
2015-12-11T02:16:49.953Z,-1.78
2015-12-11T02:17:02.312Z,-1.61
2015-12-11T02:17:14.656Z,-1.81
2015-12-11T02:17:27.031Z,-1.76
2015-12-11T02:17:39.390Z,-1.68
2015-12-11T02:17:51.767Z,-1.84
2015-12-11T02:18:04.142Z,-1.71
2015-12-11T02:18:16.517Z,-1.71
2015-12-11T02:18:28.158Z,-1.71
2015-12-11T02:18:40.533Z,-1.73
2015-12-11T02:18:52.927Z,-1.71
2015-12-11T02:19:05.302Z,-1.79
2015-12-11T02:19:17.692Z,-1.78
2015-12-11T02:19:30.067Z,-1.7
2015-12-11T02:19:42.474Z,-1.74
2015-12-11T02:19:54.866Z,-1.76
2015-12-11T02:20:07.257Z,-1.76
2015-12-11T02:20:19.663Z,-1.74
2015-12-11T02:20:32.007Z,-1.78
2015-12-11T02:20:44.366Z,-1.64
2015-12-11T02:20:56.729Z,-1.79
2015-12-11T02:21:08.369Z,-1.81
2015-12-11T02:21:20.729Z,-1.67
2015-12-11T02:21:33.104Z,-1.68
2015-12-11T02:21:45.463Z,-1.64
2015-12-11T02:21:57.825Z,-1.7
2015-12-11T02:22:10.185Z,-1.63
2015-12-11T02:22:22.560Z,-1.6
2015-12-11T02:22:34.919Z,-1.64
2015-12-11T02:22:47.278Z,-1.66
2015-12-11T02:22:59.624Z,-1.67
2015-12-11T02:23:11.999Z,-1.71
2015-12-11T02:23:24.374Z,-1.76
2015-12-11T02:23:36.734Z,-1.68
2015-12-11T02:23:49.109Z,-1.66
2015-12-11T02:24:01.488Z,-1.6
2015-12-11T02:24:13.878Z,-1.71
2015-12-11T02:24:26.269Z,-1.74
2015-12-11T02:24:38.659Z,-1.74
2015-12-11T02:24:51.034Z,-1.61
2015-12-11T02:25:03.444Z,-1.63
2015-12-11T02:25:15.803Z,-1.64
2015-12-11T02:25:28.162Z,-1.74
2015-12-11T02:25:40.522Z,-1.66
2015-12-11T02:25:52.881Z,-1.64
2015-12-11T02:26:05.243Z,-1.6
2015-12-11T02:26:17.602Z,-1.66
2015-12-11T02:26:29.258Z,-1.71
2015-12-11T02:26:41.602Z,-1.7
2015-12-11T02:26:53.961Z,-1.66
2015-12-11T02:27:06.167Z,-1.56
2015-12-11T02:27:18.542Z,-1.63
2015-12-11T02:27:30.902Z,-1.71
2015-12-11T02:27:43.261Z,-1.71
2015-12-11T02:27:55.621Z,-1.79
2015-12-11T02:28:07.983Z,-1.7
2015-12-11T02:28:20.358Z,-1.78
2015-12-11T02:28:32.717Z,-1.71
2015-12-11T02:28:45.108Z,-1.74
2015-12-11T02:28:57.467Z,-1.71
2015-12-11T02:29:09.861Z,-1.78
2015-12-11T02:29:22.252Z,-1.73
2015-12-11T02:29:34.642Z,-1.79
2015-12-11T02:29:47.033Z,-1.76
2015-12-11T02:29:59.423Z,-1.84
2015-12-11T02:30:11.816Z,-1.81
2015-12-11T02:30:24.222Z,-1.85
2015-12-11T02:30:36.613Z,-1.73
2015-12-11T02:30:49.019Z,-1.79
2015-12-11T02:31:01.379Z,-1.86
2015-12-11T02:31:13.725Z,-1.92
2015-12-11T02:31:26.085Z,-1.84
2015-12-11T02:31:38.444Z,-1.74
2015-12-11T02:31:50.819Z,-1.78
2015-12-11T02:32:03.163Z,-1.91
2015-12-11T02:32:15.524Z,-1.86
2015-12-11T02:32:27.727Z,-1.81
2015-12-11T02:32:40.087Z,-1.81
2015-12-11T02:32:52.462Z,-1.71
2015-12-11T02:33:04.852Z,-1.74
2015-12-11T02:33:17.230Z,-1.74
2015-12-11T02:33:29.590Z,-1.71
2015-12-11T02:33:41.965Z,-1.81
2015-12-11T02:33:54.340Z,-1.76
2015-12-11T02:34:06.715Z,-1.73
2015-12-11T02:34:19.093Z,-1.81
2015-12-11T02:34:31.468Z,-1.64
2015-12-11T02:34:43.858Z,-1.67
2015-12-11T02:34:56.249Z,-1.66
2015-12-11T02:35:08.640Z,-1.68
2015-12-11T02:35:21.033Z,-1.71
2015-12-11T02:35:33.424Z,-1.68
2015-12-11T02:35:45.814Z,-1.73
2015-12-11T02:35:58.221Z,-1.68
2015-12-11T02:36:10.580Z,-1.79
2015-12-11T02:36:22.942Z,-1.74
2015-12-11T02:36:35.302Z,-1.79
2015-12-11T02:36:47.505Z,-1.78
2015-12-11T02:36:59.864Z,-1.76
2015-12-11T02:37:12.224Z,-1.76
2015-12-11T02:37:24.586Z,-1.71
2015-12-11T02:37:36.945Z,-1.81
2015-12-11T02:37:49.305Z,-1.71
2015-12-11T02:38:01.680Z,-1.71
2015-12-11T02:38:14.024Z,-1.68
2015-12-11T02:38:26.385Z,-1.78
2015-12-11T02:38:38.744Z,-1.81
2015-12-11T02:38:51.104Z,-1.76
2015-12-11T02:39:03.479Z,-1.66
2015-12-11T02:39:15.854Z,-1.71
2015-12-11T02:39:28.216Z,-1.76
2015-12-11T02:39:40.607Z,-1.63
2015-12-11T02:39:52.982Z,-1.7